Lisboa, Portugal

11:14 AM AZOT em 28 de Fevereiro de 2017 (GMT -0100)
Rua Marechal Costa Gomes | | Change Station

Elev 187 ft 38.80 °N, 9.11 °W | Updated 3 minutes ago

Mostly Cloudy
Muito Nublado
58.8 °F
Aparente 58.8 °F
N
1.2
Vento Variável Vento de NO
Gusts 3.1 mph

Hoje
Máxima -- | Mínima -- °F
--% Possibilidade de Precip.
Ontem
Máxima -- | Mínima -- °F
Precip. -- pol
Pressão 30.15 pol
Visibilidade 6.2 milhas
Nuvens Poucas 2000 ft
Muito Nublado 3000 ft
Ponto de Orvalho 52 °F
Humidade 77%
Chuva 0.01 pol
Altura de Neve Não disponível
6:10 AM 5:28 PM
Quarto crescente, 4% visible
METAR LPPT 281200Z 27008KT 250V310 9999 FEW020 BKN030 14/11 Q1021
Pressão 30.15 pol
Visibilidade 6.2 milhas
Nuvens Poucas 2000 ft
Muito Nublado 3000 ft
Ponto de Orvalho 52 °F
Humidade 77%
Chuva 0.01 pol
Altura de Neve Não disponível
6:10 AM 5:28 PM
Quarto crescente, 4% visible
METAR LPPT 281200Z 27008KT 250V310 9999 FEW020 BKN030 14/11 Q1021

Get Your Daily Forecast Email!

Thanks for signing up!

Be on the lookout for a verification email in your inbox.

You'll start receiving the daily forecast at 8 AM.

×

10-Day Weather Forecast

×

Almanac

Astronomia

Feb. 28, 2017 Nascer Pôr
Hora atual
Crepúsculo civil
Crepúsculo náutico
Crepúsculo astronómico
Lua
Comprimento da luz visível
Duração do Dia
Tomorrow will be .
, % of the Moon is Illuminated

Extremos de Hoje

Altitude na localidade Altura mais baixa na localidade

Community

WunderPhotos

Upload Photos

1,962,540 fotografias inseridas!

WunderBlog® & News

Nearby

Qualidade do Ar

  Qualidade do Ar Índice da Q.A. Poluente
Not available.

Altura da Neve

Estação altura Altitude

Actividade Sísmisca

Cidade Distância Mag. Hora & Data
Mínima magnitude apresentada é 2.5.

Temperaturas das Águas Costeiras

Local Temperatura

Stations

Estações Meteorológicas Próximas

Localização da Estação Temp. Sensação Térmica Ponto de Orvalho Humidade Vento Precip. Elev Actualizado Tipo